createdAt,value
2023-02-28T00:00:07.013Z,6.00
2023-02-28T00:18:43.782Z,6.40
2023-02-28T00:37:21.460Z,5.70
2023-02-28T00:55:59.299Z,8.60
2023-02-28T01:14:37.701Z,4.80
2023-02-28T01:51:54.507Z,6.60
2023-02-28T02:10:33.263Z,4.90
2023-02-28T02:47:48.030Z,5.30
2023-02-28T03:06:26.977Z,6.00
2023-02-28T03:25:04.753Z,5.10
2023-02-28T03:43:42.944Z,6.40
2023-02-28T04:02:20.354Z,9.30
2023-02-28T04:39:36.224Z,4.60
2023-02-28T04:58:18.327Z,6.10
2023-02-28T05:35:32.651Z,7.60
2023-02-28T05:54:13.588Z,9.70
2023-02-28T06:12:49.835Z,7.90
2023-02-28T06:31:28.704Z,7.30
2023-02-28T06:50:07.199Z,7.80
2023-02-28T07:08:48.304Z,10.70
2023-02-28T07:27:24.686Z,9.40
2023-02-28T08:04:43.861Z,8.00
2023-02-28T08:23:23.233Z,6.40
2023-02-28T08:42:07.417Z,5.80
2023-02-28T09:00:43.750Z,6.20
2023-02-28T09:56:43.159Z,4.60
2023-02-28T10:33:55.704Z,6.50
2023-02-28T10:52:35.896Z,5.00
2023-02-28T11:11:14.917Z,5.50
2023-02-28T11:29:55.390Z,6.50
2023-02-28T11:48:35.855Z,7.10
2023-02-28T12:07:11.800Z,6.90
2023-02-28T12:25:47.484Z,7.40
2023-02-28T12:44:25.995Z,7.10
2023-02-28T13:21:43.807Z,6.10
2023-02-28T13:40:22.279Z,10.20
2023-02-28T13:59:00.130Z,8.60
2023-02-28T14:17:37.661Z,7.10
2023-02-28T14:36:16.508Z,6.90
2023-02-28T15:13:30.108Z,7.80
2023-02-28T15:32:07.039Z,7.50
2023-02-28T15:50:43.253Z,8.30
2023-02-28T16:09:18.182Z,7.70
2023-02-28T16:27:54.088Z,6.90
2023-02-28T16:46:30.802Z,11.00
2023-02-28T17:05:11.167Z,8.70
2023-02-28T17:23:44.253Z,6.50
2023-02-28T17:42:21.179Z,8.60
2023-02-28T18:00:57.759Z,10.70
2023-02-28T18:19:34.753Z,14.20
2023-02-28T18:38:11.774Z,19.60
2023-02-28T18:56:48.812Z,17.70
2023-02-28T19:15:24.938Z,11.50
2023-02-28T19:34:02.738Z,8.00
2023-02-28T20:11:12.616Z,11.50
2023-02-28T20:29:51.024Z,10.20
2023-02-28T20:48:29.166Z,14.70
2023-02-28T21:07:10.977Z,10.90
2023-02-28T21:25:44.236Z,12.50
2023-02-28T21:44:24.426Z,13.20
2023-02-28T22:02:58.258Z,10.10
2023-02-28T22:21:35.586Z,13.00
2023-02-28T22:40:13.411Z,9.10
2023-02-28T22:58:51.539Z,8.50
2023-02-28T23:17:30.473Z,11.40
2023-02-28T23:36:07.333Z,10.00
2023-02-28T23:54:44.540Z,11.50
